Time;durP1;ratioP1;P1;durP2;ratioP2;P2;SDS_P1;SDS_P2;PMS_P1;PMS_P2;Temp;Humidity;BMP_temperature;BMP_pressure;BME280_temperature;BME280_humidity;BME280_pressure;Samples;Min_cycle;Max_cycle;Signal;HPM_P1;HPM_P2
2022/06/15 00:00:20;;;;;;;6.38;5.30;;;14.50;98.90;;;;;;2056044;28;20065;-69
2022/06/15 00:01:24;;;;;;;6.70;5.00;;;14.50;99.10;;;;;;2056122;28;20037;-71
2022/06/15 00:02:24;;;;;;;8.27;5.20;;;14.50;99.20;;;;;;2056180;28;20038;-70
2022/06/15 00:03:28;;;;;;;5.72;5.13;;;14.50;99.40;;;;;;2055957;28;20102;-70
2022/06/15 00:04:30;;;;;;;6.43;5.00;;;14.50;99.50;;;;;;2056152;28;20035;-70
2022/06/15 00:05:31;;;;;;;6.43;5.22;;;14.50;99.70;;;;;;2055308;28;20457;-70
2022/06/15 00:06:37;;;;;;;6.30;5.13;;;14.50;99.90;;;;;;2055442;28;20026;-70
2022/06/15 00:07:38;;;;;;;6.40;5.40;;;14.40;99.90;;;;;;2047459;29;20034;-70
2022/06/15 00:08:41;;;;;;;5.72;5.05;;;14.40;99.90;;;;;;2047297;29;20082;-71
2022/06/15 00:09:42;;;;;;;6.03;5.15;;;14.40;99.90;;;;;;2055511;28;20034;-71
2022/06/15 00:10:42;;;;;;;6.47;5.00;;;14.40;99.90;;;;;;2055365;28;20058;-70
2022/06/15 00:11:44;;;;;;;6.35;5.35;;;14.30;99.90;;;;;;2055614;28;20050;-71
2022/06/15 00:12:44;;;;;;;6.70;5.10;;;14.30;99.90;;;;;;2055449;28;20026;-70
2022/06/15 00:13:46;;;;;;;6.43;5.35;;;14.30;99.90;;;;;;2055859;28;20679;-70
2022/06/15 00:14:47;;;;;;;9.05;5.80;;;14.30;99.90;;;;;;2056037;28;20026;-70
2022/06/15 00:15:49;;;;;;;6.68;5.35;;;14.30;99.90;;;;;;2055980;28;20031;-70
2022/06/15 00:16:51;;;;;;;7.45;5.40;;;14.30;99.90;;;;;;2055979;28;20039;-69
2022/06/15 00:17:52;;;;;;;6.85;5.75;;;14.30;99.90;;;;;;2056101;28;20023;-70
2022/06/15 00:18:52;;;;;;;6.00;5.30;;;14.20;99.90;;;;;;2055717;28;20402;-70
2022/06/15 00:19:53;;;;;;;6.50;5.25;;;14.20;99.90;;;;;;2055892;28;20031;-70
2022/06/15 00:20:55;;;;;;;7.20;5.68;;;14.20;99.90;;;;;;2055741;28;20069;-70
2022/06/15 00:21:56;;;;;;;6.68;5.53;;;14.20;99.90;;;;;;2055978;28;20027;-73
2022/06/15 00:22:57;;;;;;;6.72;5.40;;;14.20;99.90;;;;;;2055904;28;20426;-71
2022/06/15 00:23:57;;;;;;;8.23;5.55;;;14.20;99.90;;;;;;2057513;28;20081;-70
2022/06/15 00:24:58;;;;;;;7.53;5.70;;;14.20;99.90;;;;;;2057772;28;20089;-71
2022/06/15 00:25:59;;;;;;;7.20;5.40;;;14.20;99.90;;;;;;2057746;28;20051;-71
2022/06/15 00:27:00;;;;;;;6.53;5.32;;;14.20;99.90;;;;;;2058219;28;20039;-70
2022/06/15 00:28:00;;;;;;;7.10;5.80;;;14.20;99.90;;;;;;2056622;28;20691;-72
2022/06/15 00:29:02;;;;;;;6.38;5.65;;;14.20;99.90;;;;;;2058463;28;20034;-72
2022/06/15 00:30:04;;;;;;;6.70;5.60;;;14.10;99.90;;;;;;2057932;28;20208;-69
2022/06/15 00:31:06;;;;;;;9.10;5.85;;;14.10;99.90;;;;;;2057441;28;20129;-69
2022/06/15 00:32:07;;;;;;;7.82;5.85;;;14.10;99.90;;;;;;2057762;28;20401;-72
2022/06/15 00:33:08;;;;;;;7.57;6.00;;;14.10;99.90;;;;;;2057772;28;20034;-70
2022/06/15 00:34:09;;;;;;;6.13;5.38;;;14.10;99.90;;;;;;2057823;28;20026;-70
2022/06/15 00:35:09;;;;;;;6.68;5.57;;;14.10;99.90;;;;;;2057821;28;20030;-71
2022/06/15 00:36:14;;;;;;;7.47;5.80;;;14.00;99.90;;;;;;2057804;28;20661;-70
2022/06/15 00:37:15;;;;;;;7.47;5.90;;;14.00;99.90;;;;;;2057317;28;20026;-71
2022/06/15 00:38:16;;;;;;;7.07;5.93;;;14.00;99.90;;;;;;2057508;28;20065;-71
2022/06/15 00:39:17;;;;;;;7.50;5.80;;;14.00;99.90;;;;;;2056752;28;20042;-70
2022/06/15 00:40:17;;;;;;;9.18;6.15;;;14.00;99.90;;;;;;2057206;28;20083;-70
2022/06/15 00:41:22;;;;;;;10.80;6.10;;;13.90;99.90;;;;;;2055885;28;20037;-70
2022/06/15 00:42:27;;;;;;;8.10;6.25;;;13.90;99.90;;;;;;2057053;28;20106;-69
2022/06/15 00:43:35;;;;;;;6.55;5.90;;;13.90;99.90;;;;;;2058313;28;20102;-70
2022/06/15 00:44:38;;;;;;;8.10;5.80;;;13.90;99.90;;;;;;2057111;28;20614;-70
2022/06/15 00:45:39;;;;;;;6.30;5.70;;;13.90;99.90;;;;;;2056969;28;20023;-70
2022/06/15 00:46:43;;;;;;;6.25;5.60;;;13.90;99.90;;;;;;2048646;29;20559;-70
2022/06/15 00:47:46;;;;;;;5.97;5.40;;;13.80;99.90;;;;;;2048788;28;20028;-70
2022/06/15 00:48:50;;;;;;;8.52;5.95;;;13.90;99.90;;;;;;2056390;28;20502;-71
2022/06/15 00:49:54;;;;;;;6.80;5.88;;;13.90;99.90;;;;;;2056981;28;20863;-71
2022/06/15 00:50:55;;;;;;;7.47;5.80;;;13.90;99.90;;;;;;2057438;28;20030;-70
2022/06/15 00:52:01;;;;;;;8.23;5.80;;;13.90;99.90;;;;;;2057580;28;20031;-70
2022/06/15 00:53:07;;;;;;;6.35;5.70;;;13.80;99.90;;;;;;2056510;28;20041;-71
2022/06/15 00:54:08;;;;;;;6.85;5.85;;;13.90;99.90;;;;;;2057156;28;20173;-71
2022/06/15 00:55:16;;;;;;;6.15;5.55;;;13.80;99.90;;;;;;2057608;28;20034;-71
2022/06/15 00:56:17;;;;;;;6.50;5.90;;;13.80;99.90;;;;;;2057273;28;20035;-71
2022/06/15 00:57:18;;;;;;;6.78;5.72;;;13.80;99.90;;;;;;2056772;28;20027;-70
2022/06/15 00:58:19;;;;;;;6.60;5.90;;;13.80;99.90;;;;;;2049497;29;20597;-71
2022/06/15 00:59:49;;;;;;;6.70;5.97;;;13.80;99.90;;;;;;2049178;28;20126;-71
2022/06/15 01:00:53;;;;;;;7.28;6.18;;;13.80;99.90;;;;;;2056863;28;20039;-72
2022/06/15 01:01:54;;;;;;;6.85;6.00;;;13.70;99.90;;;;;;2057463;28;20030;-71
2022/06/15 01:02:55;;;;;;;7.68;5.80;;;13.70;99.90;;;;;;2058161;28;20054;-71
2022/06/15 01:03:58;;;;;;;6.30;5.60;;;13.70;99.90;;;;;;2057386;28;20027;-70
2022/06/15 01:05:10;;;;;;;9.15;6.20;;;13.70;99.90;;;;;;2057742;28;20035;-71
2022/06/15 01:06:22;;;;;;;6.75;6.03;;;13.70;99.90;;;;;;2057452;28;20050;-70
2022/06/15 01:07:43;;;;;;;7.18;6.00;;;13.70;99.90;;;;;;2049509;29;20035;-71
2022/06/15 01:09:05;;;;;;;9.38;6.50;;;13.70;99.90;;;;;;2052310;28;20109;-71
2022/06/15 01:10:16;;;;;;;6.60;6.00;;;13.70;99.90;;;;;;2058265;28;20093;-69
2022/06/15 01:11:40;;;;;;;9.50;6.63;;;13.70;99.90;;;;;;2049559;29;20025;-72
2022/06/15 01:13:01;;;;;;;7.72;6.80;;;13.60;99.90;;;;;;2039443;28;20038;-71
2022/06/15 01:14:34;;;;;;;8.02;6.50;;;13.60;99.90;;;;;;2048745;29;20031;-72
2022/06/15 01:15:43;;;;;;;7.68;6.40;;;13.50;99.90;;;;;;2048511;29;20129;-72
2022/06/15 01:17:05;;;;;;;8.25;6.80;;;13.50;99.90;;;;;;2047630;29;20039;-69
2022/06/15 01:18:19;;;;;;;9.75;6.80;;;13.50;99.90;;;;;;2042454;29;20131;-71
2022/06/15 01:19:37;;;;;;;8.20;6.07;;;13.50;99.90;;;;;;2041004;29;20039;-71
2022/06/15 01:21:00;;;;;;;8.00;6.55;;;13.50;99.90;;;;;;2041418;29;20042;-71
2022/06/15 01:22:19;;;;;;;8.43;6.55;;;13.40;99.90;;;;;;2042194;29;20023;-71
2022/06/15 01:23:38;;;;;;;8.20;6.30;;;13.40;99.90;;;;;;2049714;28;20047;-71
2022/06/15 01:25:03;;;;;;;8.48;6.70;;;13.40;99.90;;;;;;2056496;28;20117;-72
2022/06/15 01:26:22;;;;;;;8.93;6.88;;;13.40;99.90;;;;;;2056413;28;20379;-72
2022/06/15 01:28:03;;;;;;;8.05;6.63;;;13.30;99.90;;;;;;2055743;28;20023;-71
2022/06/15 01:29:57;;;;;;;10.13;6.75;;;13.30;99.90;;;;;;2056240;28;20027;-71
2022/06/15 01:31:35;;;;;;;8.88;6.22;;;13.40;99.90;;;;;;2031632;29;20059;-72
2022/06/15 01:32:45;;;;;;;7.82;6.55;;;13.30;99.90;;;;;;2029307;29;20151;-71
2022/06/15 01:33:57;;;;;;;9.27;6.50;;;13.30;99.90;;;;;;2049750;28;20031;-71
2022/06/15 01:35:11;;;;;;;7.93;7.13;;;13.30;99.90;;;;;;2057503;28;20043;-71
2022/06/15 01:36:25;;;;;;;7.95;6.50;;;13.30;99.90;;;;;;2048989;29;20512;-71
2022/06/15 01:37:39;;;;;;;7.22;6.13;;;13.30;99.90;;;;;;2055331;28;20544;-71
2022/06/15 01:39:10;;;;;;;9.00;6.68;;;13.30;99.90;;;;;;2049542;29;20035;-70
2022/06/15 01:40:23;;;;;;;7.13;6.30;;;13.30;99.90;;;;;;2045625;29;20047;-71
2022/06/15 01:41:27;;;;;;;8.95;6.82;;;13.30;99.90;;;;;;2043002;29;20046;-72
2022/06/15 01:42:34;;;;;;;7.93;6.85;;;13.30;99.90;;;;;;2049937;28;20019;-71
2022/06/15 01:43:40;;;;;;;7.68;6.50;;;13.20;99.90;;;;;;2056980;28;20090;-71
2022/06/15 01:44:52;;;;;;;8.07;6.70;;;13.20;99.90;;;;;;2041084;29;20083;-70
2022/06/15 01:45:55;;;;;;;7.63;6.80;;;13.20;99.90;;;;;;2042153;29;20039;-70
2022/06/15 01:46:59;;;;;;;8.60;7.03;;;13.20;99.90;;;;;;2040361;29;20036;-72
2022/06/15 01:48:03;;;;;;;9.50;7.20;;;13.20;99.90;;;;;;2039834;29;20055;-71
2022/06/15 01:49:08;;;;;;;8.60;6.82;;;13.10;99.90;;;;;;2047840;28;20035;-71
2022/06/15 01:50:18;;;;;;;7.32;6.32;;;13.10;99.90;;;;;;2056395;28;20027;-71
2022/06/15 01:51:23;;;;;;;7.30;6.32;;;13.10;99.90;;;;;;2048323;29;20034;-70
2022/06/15 01:52:34;;;;;;;8.32;6.60;;;13.10;99.90;;;;;;2048191;28;20058;-70
2022/06/15 01:53:40;;;;;;;6.97;6.28;;;13.10;99.90;;;;;;2048867;28;20039;-71
2022/06/15 01:54:46;;;;;;;7.85;6.30;;;13.10;99.90;;;;;;2057004;28;20500;-71
2022/06/15 01:55:56;;;;;;;7.32;6.47;;;13.00;99.90;;;;;;2056746;28;20062;-70
2022/06/15 01:57:00;;;;;;;7.43;6.68;;;13.00;99.90;;;;;;2040210;29;20032;-71
2022/06/15 01:58:06;;;;;;;7.20;6.28;;;13.00;99.90;;;;;;2040779;29;20043;-71
2022/06/15 01:59:26;;;;;;;7.45;6.30;;;12.90;99.90;;;;;;2041400;29;20114;-71
2022/06/15 02:00:28;;;;;;;8.23;6.82;;;12.90;99.90;;;;;;2042795;29;20031;-70
2022/06/15 02:01:39;;;;;;;7.40;6.63;;;12.90;99.90;;;;;;2040617;29;20032;-71
2022/06/15 02:03:07;;;;;;;7.50;6.70;;;12.90;99.90;;;;;;2042464;29;20032;-71
2022/06/15 02:04:26;;;;;;;7.38;6.57;;;12.80;99.90;;;;;;2032385;29;20036;-72
2022/06/15 02:05:37;;;;;;;8.25;6.97;;;12.80;99.90;;;;;;2027409;29;20035;-70
2022/06/15 02:06:45;;;;;;;9.32;7.68;;;12.80;99.90;;;;;;2035882;29;20107;-71
2022/06/15 02:07:56;;;;;;;10.27;7.20;;;12.80;99.90;;;;;;2040034;29;20031;-70
2022/06/15 02:09:15;;;;;;;10.13;7.28;;;12.80;99.90;;;;;;2039686;29;20432;-69
2022/06/15 02:10:33;;;;;;;8.00;6.90;;;12.80;99.90;;;;;;2033014;29;20779;-70
2022/06/15 02:11:38;;;;;;;8.10;7.28;;;12.80;99.90;;;;;;2034214;29;20514;-71
2022/06/15 02:12:53;;;;;;;8.35;7.03;;;12.80;99.90;;;;;;2040196;29;20079;-70
2022/06/15 02:13:58;;;;;;;7.60;6.90;;;12.80;99.90;;;;;;2039815;29;20509;-70
2022/06/15 02:15:02;;;;;;;8.68;7.07;;;12.70;99.90;;;;;;2040038;29;20071;-70
2022/06/15 02:16:11;;;;;;;8.80;6.75;;;12.70;99.90;;;;;;2047882;29;20042;-70
2022/06/15 02:17:30;;;;;;;8.23;6.95;;;12.70;99.90;;;;;;2046847;28;20039;-70
2022/06/15 02:18:33;;;;;;;8.45;6.90;;;12.70;99.90;;;;;;2039448;29;20821;-71
2022/06/15 02:19:42;;;;;;;7.78;7.03;;;12.70;99.90;;;;;;2039975;29;20371;-70
2022/06/15 02:20:53;;;;;;;7.57;6.88;;;12.70;99.90;;;;;;2040080;29;20103;-71
2022/06/15 02:21:56;;;;;;;9.63;7.25;;;12.70;99.90;;;;;;2026613;29;20028;-70
2022/06/15 02:22:59;;;;;;;7.70;6.88;;;12.70;99.90;;;;;;2033591;29;20907;-70
2022/06/15 02:24:03;;;;;;;8.82;7.03;;;12.70;99.90;;;;;;2049158;29;20851;-70
2022/06/15 02:25:13;;;;;;;7.72;6.57;;;12.80;99.90;;;;;;2041188;29;20114;-71
2022/06/15 02:26:15;;;;;;;7.50;6.70;;;12.70;99.90;;;;;;2041705;29;20032;-71
2022/06/15 02:27:18;;;;;;;9.30;7.10;;;12.70;99.90;;;;;;2033890;29;20028;-71
2022/06/15 02:28:31;;;;;;;8.13;6.80;;;12.70;99.90;;;;;;2034190;29;20028;-70
2022/06/15 02:29:37;;;;;;;8.13;6.65;;;12.70;99.90;;;;;;2042118;29;20024;-70
2022/06/15 02:30:39;;;;;;;7.15;6.43;;;12.70;99.90;;;;;;2041541;29;20027;-71
2022/06/15 02:31:41;;;;;;;8.55;7.03;;;12.70;99.90;;;;;;2040850;29;20073;-71
2022/06/15 02:32:46;;;;;;;8.45;7.10;;;12.70;99.90;;;;;;2048262;29;20027;-70
2022/06/15 02:33:54;;;;;;;8.38;6.97;;;12.60;99.90;;;;;;2048673;29;20577;-71
2022/06/15 02:34:56;;;;;;;8.65;6.80;;;12.60;99.90;;;;;;2048333;29;20027;-71
2022/06/15 02:35:58;;;;;;;8.52;7.15;;;12.60;99.90;;;;;;2040536;29;20035;-71
2022/06/15 02:37:00;;;;;;;9.63;6.97;;;12.60;99.90;;;;;;2048612;29;20126;-71
2022/06/15 02:38:01;;;;;;;9.75;7.00;;;12.60;99.90;;;;;;2040997;29;20530;-71
2022/06/15 02:39:04;;;;;;;8.70;6.82;;;12.60;99.90;;;;;;2040619;29;20046;-71
2022/06/15 02:40:07;;;;;;;9.48;7.10;;;12.60;99.90;;;;;;2041295;29;20470;-71
2022/06/15 02:41:11;;;;;;;8.13;6.97;;;12.50;99.90;;;;;;2042425;29;20099;-71
2022/06/15 02:42:28;;;;;;;8.18;7.00;;;12.50;99.90;;;;;;2050764;28;20029;-70
2022/06/15 02:43:40;;;;;;;9.23;7.25;;;12.50;99.90;;;;;;2037385;29;20075;-70
2022/06/15 02:44:41;;;;;;;8.23;6.93;;;12.60;99.90;;;;;;2043083;28;20032;-71
2022/06/15 02:45:43;;;;;;;8.15;7.10;;;12.60;99.90;;;;;;2049082;28;20426;-71
2022/06/15 02:46:48;;;;;;;8.88;7.47;;;12.50;99.90;;;;;;2049712;29;20038;-71
2022/06/15 02:47:49;;;;;;;10.30;7.50;;;12.60;99.90;;;;;;2049137;28;20046;-72
2022/06/15 02:48:51;;;;;;;9.35;7.35;;;12.60;99.90;;;;;;2049107;28;20031;-71
2022/06/15 02:49:53;;;;;;;9.43;7.18;;;12.60;99.90;;;;;;2049069;28;20027;-70
2022/06/15 02:51:03;;;;;;;9.38;6.95;;;12.60;99.90;;;;;;2033849;29;20143;-71
2022/06/15 02:52:11;;;;;;;8.48;7.30;;;12.60;99.90;;;;;;2040896;29;20039;-70
2022/06/15 02:53:16;;;;;;;9.05;7.05;;;12.60;99.90;;;;;;2047054;29;20023;-70
2022/06/15 02:54:39;;;;;;;7.80;7.00;;;12.60;99.90;;;;;;2046948;29;20027;-71
2022/06/15 02:55:49;;;;;;;8.15;7.10;;;12.60;99.90;;;;;;2043185;28;20047;-70
2022/06/15 02:56:51;;;;;;;8.32;7.40;;;12.60;99.90;;;;;;2031193;29;20044;-71
2022/06/15 02:58:01;;;;;;;9.73;7.32;;;12.50;99.90;;;;;;2038570;29;20071;-70
2022/06/15 02:59:06;;;;;;;8.02;7.22;;;12.60;99.90;;;;;;2044833;29;20553;-71
2022/06/15 03:00:14;;;;;;;8.40;7.50;;;12.50;99.90;;;;;;2031638;29;20119;-70
2022/06/15 03:01:17;;;;;;;9.45;7.25;;;12.50;99.90;;;;;;2039078;29;20067;-70
2022/06/15 03:02:23;;;;;;;8.30;7.40;;;12.50;99.90;;;;;;2038660;29;20038;-70
2022/06/15 03:03:28;;;;;;;9.20;6.75;;;12.60;99.90;;;;;;2039176;29;20016;-70
2022/06/15 03:04:48;;;;;;;8.50;7.20;;;12.60;99.90;;;;;;2031572;29;20170;-71
2022/06/15 03:05:50;;;;;;;8.07;7.05;;;12.50;99.90;;;;;;2046109;28;20034;-70
2022/06/15 03:06:53;;;;;;;8.05;7.07;;;12.50;99.90;;;;;;2063956;28;20035;-70
2022/06/15 03:07:55;;;;;;;8.68;7.07;;;12.50;99.90;;;;;;2056158;28;20034;-71
2022/06/15 03:08:57;;;;;;;7.78;6.80;;;12.50;99.90;;;;;;2047601;28;20083;-70
2022/06/15 03:10:18;;;;;;;7.70;6.68;;;12.50;99.90;;;;;;2049031;28;20145;-70
2022/06/15 03:11:19;;;;;;;7.72;6.97;;;12.50;99.90;;;;;;2058857;28;20026;-71
2022/06/15 03:12:20;;;;;;;9.55;7.13;;;12.50;99.90;;;;;;2056098;28;20123;-70
2022/06/15 03:13:21;;;;;;;8.45;6.93;;;12.50;99.90;;;;;;2055904;28;20112;-70
2022/06/15 03:14:22;;;;;;;9.13;7.10;;;12.50;99.90;;;;;;2056420;28;20106;-70
2022/06/15 03:15:25;;;;;;;7.78;6.70;;;12.40;99.90;;;;;;2056030;28;20038;-70
2022/06/15 03:16:25;;;;;;;8.65;6.55;;;12.40;99.90;;;;;;2056125;28;20061;-70
2022/06/15 03:17:26;;;;;;;10.00;6.72;;;12.40;99.90;;;;;;2055949;28;20034;-70
2022/06/15 03:18:31;;;;;;;9.75;7.00;;;12.40;99.90;;;;;;2055985;28;20039;-71
2022/06/15 03:19:37;;;;;;;7.93;7.13;;;12.40;99.90;;;;;;2056016;28;20118;-70
2022/06/15 03:20:38;;;;;;;9.38;7.30;;;12.40;99.90;;;;;;2055635;28;20085;-70
2022/06/15 03:21:39;;;;;;;8.57;7.18;;;12.40;99.90;;;;;;2047968;29;20532;-70
2022/06/15 03:22:42;;;;;;;9.32;6.85;;;12.40;99.90;;;;;;2040246;28;20109;-71
2022/06/15 03:23:49;;;;;;;7.88;6.93;;;12.40;99.90;;;;;;2049185;28;20059;-70
2022/06/15 03:24:51;;;;;;;7.75;6.90;;;12.50;99.90;;;;;;2056095;28;20034;-71
2022/06/15 03:25:57;;;;;;;11.13;7.50;;;12.50;99.90;;;;;;2056070;28;20082;-71
2022/06/15 03:26:59;;;;;;;7.72;6.95;;;12.50;99.90;;;;;;2056084;28;20077;-70
2022/06/15 03:28:00;;;;;;;8.88;7.18;;;12.50;99.90;;;;;;2056045;28;20057;-71
2022/06/15 03:29:05;;;;;;;8.63;7.28;;;12.50;99.90;;;;;;2047631;29;20362;-70
2022/06/15 03:30:07;;;;;;;10.02;7.10;;;12.60;99.90;;;;;;2048052;28;20035;-70
2022/06/15 03:31:15;;;;;;;9.38;7.20;;;12.50;99.90;;;;;;2049100;28;20027;-70
2022/06/15 03:32:17;;;;;;;8.98;6.78;;;12.50;99.90;;;;;;2055870;28;20035;-70
2022/06/15 03:33:24;;;;;;;7.85;6.70;;;12.50;99.90;;;;;;2056467;28;20661;-70
2022/06/15 03:34:26;;;;;;;7.85;6.68;;;12.50;99.90;;;;;;2047992;29;20027;-70
2022/06/15 03:35:34;;;;;;;7.68;6.80;;;12.50;99.90;;;;;;2040071;29;20046;-70
2022/06/15 03:36:37;;;;;;;8.27;6.88;;;12.50;99.90;;;;;;2048975;28;20035;-70
2022/06/15 03:37:40;;;;;;;7.38;6.68;;;12.50;99.90;;;;;;2047806;29;20061;-70
2022/06/15 03:38:55;;;;;;;7.82;6.82;;;12.50;99.90;;;;;;2043843;28;20032;-70
2022/06/15 03:40:10;;;;;;;7.90;6.60;;;12.50;99.90;;;;;;2048992;28;20082;-70
2022/06/15 03:41:13;;;;;;;8.57;6.78;;;12.50;99.90;;;;;;2048680;28;20748;-70
2022/06/15 03:42:16;;;;;;;9.48;7.10;;;12.50;99.90;;;;;;2055730;28;20046;-70
2022/06/15 03:43:18;;;;;;;7.47;6.68;;;12.50;99.90;;;;;;2055658;28;20030;-71
2022/06/15 03:44:18;;;;;;;7.25;6.35;;;12.50;99.90;;;;;;2055948;28;20057;-71
2022/06/15 03:45:19;;;;;;;9.35;6.63;;;12.50;99.90;;;;;;2055763;28;20037;-72
2022/06/15 03:46:23;;;;;;;7.63;6.68;;;12.50;99.90;;;;;;2055952;28;20122;-71
2022/06/15 03:47:24;;;;;;;8.13;6.32;;;12.50;99.90;;;;;;2055802;28;20033;-71
2022/06/15 03:48:25;;;;;;;7.63;6.43;;;12.50;99.90;;;;;;2047312;29;20039;-71
2022/06/15 03:49:26;;;;;;;7.00;6.30;;;12.60;99.90;;;;;;2047894;28;20123;-71
2022/06/15 03:50:29;;;;;;;8.80;6.75;;;12.60;99.90;;;;;;2047859;29;20390;-71
2022/06/15 03:51:34;;;;;;;6.55;5.85;;;12.60;99.90;;;;;;2048967;28;20027;-71
2022/06/15 03:52:37;;;;;;;10.65;6.30;;;12.60;99.90;;;;;;2055638;28;20035;-71
2022/06/15 03:53:39;;;;;;;11.90;6.60;;;12.70;99.90;;;;;;2047637;28;20034;-71
2022/06/15 03:54:41;;;;;;;8.00;6.65;;;12.70;99.90;;;;;;2047810;28;20038;-72
2022/06/15 03:55:44;;;;;;;7.03;5.93;;;12.70;99.90;;;;;;2056314;28;20035;-70
2022/06/15 03:56:49;;;;;;;9.60;6.68;;;12.70;99.90;;;;;;2055598;28;20039;-70
2022/06/15 03:58:05;;;;;;;9.82;6.10;;;12.70;99.90;;;;;;2057620;28;20065;-71
2022/06/15 03:59:06;;;;;;;7.50;6.05;;;12.70;99.90;;;;;;2055699;28;20035;-71
2022/06/15 04:00:11;;;;;;;6.80;6.10;;;12.80;99.90;;;;;;2055618;28;20109;-71
2022/06/15 04:01:23;;;;;;;8.27;6.43;;;12.80;99.90;;;;;;2055809;28;20055;-72
2022/06/15 04:02:24;;;;;;;7.97;6.50;;;12.90;99.90;;;;;;2055849;28;20074;-71
2022/06/15 04:03:25;;;;;;;7.35;6.00;;;13.10;99.90;;;;;;2047418;28;20106;-71
2022/06/15 04:04:30;;;;;;;6.20;5.57;;;13.30;99.90;;;;;;2048134;28;20031;-71
2022/06/15 04:05:35;;;;;;;7.95;5.72;;;13.70;99.90;;;;;;2047948;28;20082;-71
2022/06/15 04:06:38;;;;;;;7.28;5.53;;;14.10;99.90;;;;;;2048880;28;20035;-71
2022/06/15 04:09:03;;;;;;;5.95;5.28;;;15.00;99.90;;;;;;2044670;28;20051;-71
2022/06/15 04:10:13;;;;;;;5.32;4.57;;;15.60;99.90;;;;;;2048554;28;20067;-71
2022/06/15 04:12:45;;;;;;;7.40;4.88;;;16.40;99.90;;;;;;2050888;28;20090;-70
2022/06/15 04:13:47;;;;;;;9.25;5.38;;;16.70;99.90;;;;;;2048109;28;20027;-71
2022/06/15 04:14:50;;;;;;;6.13;5.10;;;17.00;99.90;;;;;;2047228;28;20123;-71
2022/06/15 04:16:11;;;;;;;6.43;4.90;;;17.30;99.50;;;;;;2057764;28;20035;-70
2022/06/15 04:17:12;;;;;;;6.22;4.80;;;17.60;97.80;;;;;;2063277;28;20440;-71
2022/06/15 04:18:28;;;;;;;5.38;4.28;;;17.80;96.40;;;;;;2055216;28;20035;-71
2022/06/15 04:19:35;;;;;;;7.47;4.10;;;18.10;95.20;;;;;;2055584;28;20628;-71
2022/06/15 04:20:36;;;;;;;5.25;4.07;;;18.30;93.80;;;;;;2047164;28;20129;-71
2022/06/15 04:21:46;;;;;;;7.28;4.03;;;18.50;92.80;;;;;;2047440;28;20079;-71
2022/06/15 04:22:48;;;;;;;6.07;4.20;;;18.70;91.70;;;;;;2040727;28;20039;-71
2022/06/15 04:23:48;;;;;;;8.27;4.10;;;18.80;90.80;;;;;;2047107;28;20418;-71
2022/06/15 04:24:49;;;;;;;5.93;3.97;;;18.90;90.20;;;;;;2055323;28;20798;-71
2022/06/15 04:25:54;;;;;;;6.40;4.25;;;19.00;89.00;;;;;;2047565;28;20031;-71
2022/06/15 04:26:58;;;;;;;5.60;3.90;;;19.20;88.00;;;;;;2055596;28;20030;-71
2022/06/15 04:28:00;;;;;;;6.28;4.32;;;19.30;86.90;;;;;;2055280;28;20046;-71
2022/06/15 04:29:01;;;;;;;7.45;4.38;;;19.20;85.50;;;;;;2055164;28;20401;-71
2022/06/15 04:30:06;;;;;;;6.07;3.92;;;19.30;85.20;;;;;;2047991;28;20027;-71
2022/06/15 04:31:07;;;;;;;5.25;3.78;;;19.40;84.90;;;;;;2055318;28;20154;-71
2022/06/15 04:32:12;;;;;;;4.82;4.00;;;19.50;84.10;;;;;;2055464;28;20041;-71
2022/06/15 04:33:13;;;;;;;5.00;3.75;;;19.70;83.10;;;;;;2055485;28;20698;-71
2022/06/15 04:34:13;;;;;;;6.38;3.58;;;19.90;82.20;;;;;;2055266;28;20034;-71
2022/06/15 04:35:15;;;;;;;5.97;4.05;;;20.00;81.30;;;;;;2055359;28;20534;-71
2022/06/15 04:36:16;;;;;;;4.35;3.78;;;20.10;80.20;;;;;;2055285;28;20026;-71
2022/06/15 04:37:22;;;;;;;5.75;3.67;;;20.20;79.60;;;;;;2047820;28;20070;-71
2022/06/15 04:38:27;;;;;;;4.55;3.50;;;20.30;78.90;;;;;;2047365;28;20035;-71
2022/06/15 04:39:35;;;;;;;6.57;4.15;;;20.50;78.00;;;;;;2054931;28;20042;-71
2022/06/15 04:40:38;;;;;;;5.30;3.70;;;20.60;76.70;;;;;;2047247;28;20031;-70
2022/06/15 04:41:40;;;;;;;8.60;4.15;;;20.60;76.20;;;;;;2054936;28;20089;-71
2022/06/15 04:42:46;;;;;;;8.18;4.05;;;20.60;75.20;;;;;;2047179;28;20031;-71
2022/06/15 04:43:48;;;;;;;6.63;4.15;;;20.40;75.10;;;;;;2047743;28;20028;-70
2022/06/15 04:44:51;;;;;;;6.32;3.85;;;20.40;74.90;;;;;;2054983;28;20027;-70
2022/06/15 04:45:52;;;;;;;7.80;3.80;;;20.40;75.20;;;;;;2046971;28;20086;-70
2022/06/15 04:46:58;;;;;;;6.25;4.03;;;20.40;75.10;;;;;;2047232;28;20020;-70
2022/06/15 04:48:00;;;;;;;7.57;4.00;;;20.20;74.10;;;;;;2047207;28;20036;-70
2022/06/15 04:49:01;;;;;;;7.70;4.15;;;19.90;75.20;;;;;;2046972;28;20552;-70
2022/06/15 04:50:13;;;;;;;5.78;3.67;;;19.80;75.70;;;;;;2055133;28;20027;-70
2022/06/15 04:51:22;;;;;;;6.15;3.58;;;19.90;76.20;;;;;;2048227;28;20113;-70
2022/06/15 04:52:26;;;;;;;8.05;3.90;;;20.10;75.40;;;;;;2056353;28;20795;-70
2022/06/15 04:53:27;;;;;;;7.13;3.70;;;20.40;74.60;;;;;;2055290;28;20038;-71
2022/06/15 04:54:28;;;;;;;5.90;4.03;;;20.60;73.90;;;;;;2055561;28;20134;-70
2022/06/15 04:55:33;;;;;;;4.72;3.50;;;20.70;72.80;;;;;;2047437;28;20446;-70
2022/06/15 04:56:37;;;;;;;6.25;3.65;;;20.90;72.60;;;;;;2055403;28;20501;-70
2022/06/15 04:57:42;;;;;;;7.00;3.55;;;21.00;71.20;;;;;;2039941;29;20118;-71
2022/06/15 04:58:43;;;;;;;4.22;3.22;;;21.10;70.80;;;;;;2047520;28;20046;-71
2022/06/15 04:59:44;;;;;;;8.43;4.05;;;21.20;70.00;;;;;;2054889;28;20038;-71
2022/06/15 05:00:48;;;;;;;7.22;3.90;;;21.20;68.50;;;;;;2039362;29;20570;-73
2022/06/15 05:01:51;;;;;;;5.00;3.55;;;20.90;69.00;;;;;;2047749;28;20121;-71
2022/06/15 05:02:54;;;;;;;6.45;3.65;;;20.60;69.70;;;;;;2046974;28;20031;-71
2022/06/15 05:03:57;;;;;;;6.05;3.88;;;20.50;70.20;;;;;;2047074;28;20109;-70
2022/06/15 05:04:59;;;;;;;5.22;3.35;;;20.70;69.90;;;;;;2047131;28;20031;-71
2022/06/15 05:06:11;;;;;;;5.07;3.35;;;20.90;69.40;;;;;;2047084;28;20466;-71
2022/06/15 05:07:12;;;;;;;4.97;3.15;;;21.10;69.10;;;;;;2055081;28;20034;-71
2022/06/15 05:08:15;;;;;;;3.85;3.45;;;21.40;68.60;;;;;;2054681;28;20077;-71
2022/06/15 05:09:20;;;;;;;5.43;3.50;;;21.60;67.70;;;;;;2047221;28;20134;-71
2022/06/15 05:10:25;;;;;;;7.07;3.35;;;21.90;67.10;;;;;;2054603;28;20082;-71
2022/06/15 05:11:26;;;;;;;6.30;4.00;;;22.10;66.10;;;;;;2055033;28;20038;-70
2022/06/15 05:12:29;;;;;;;6.95;3.40;;;22.10;65.10;;;;;;2054773;28;20076;-71
2022/06/15 05:13:30;;;;;;;5.30;3.42;;;22.20;64.80;;;;;;2054660;28;20098;-71
2022/06/15 05:14:33;;;;;;;4.80;3.60;;;22.30;64.40;;;;;;2047022;28;20115;-72
2022/06/15 05:15:46;;;;;;;3.83;3.28;;;22.40;63.90;;;;;;2047241;28;20054;-71
2022/06/15 05:16:48;;;;;;;5.57;3.63;;;22.40;63.30;;;;;;2048052;28;20482;-71
2022/06/15 05:17:52;;;;;;;4.13;3.10;;;22.50;63.20;;;;;;2047346;28;20036;-71
2022/06/15 05:18:54;;;;;;;3.47;3.10;;;22.60;62.90;;;;;;2046416;28;20089;-71
2022/06/15 05:20:01;;;;;;;5.50;3.40;;;22.80;62.30;;;;;;2056105;28;20488;-71
2022/06/15 05:21:04;;;;;;;5.70;3.38;;;22.60;61.90;;;;;;2055466;28;20035;-70
2022/06/15 05:22:05;;;;;;;4.80;3.78;;;22.40;61.90;;;;;;2055798;28;20027;-71
2022/06/15 05:23:10;;;;;;;12.80;6.63;;;22.30;62.50;;;;;;2056511;28;20066;-72
2022/06/15 05:24:30;;;;;;;10.68;4.65;;;22.30;62.70;;;;;;2055038;28;20461;-71
2022/06/15 05:25:33;;;;;;;6.50;4.07;;;22.50;61.90;;;;;;2054853;28;20030;-71
2022/06/15 05:26:34;;;;;;;7.07;3.75;;;22.20;62.00;;;;;;2054704;28;20504;-71
2022/06/15 05:27:36;;;;;;;5.88;3.58;;;22.00;62.60;;;;;;2054407;28;20122;-72
2022/06/15 05:28:38;;;;;;;8.45;3.50;;;21.90;63.40;;;;;;2054880;28;20046;-71
2022/06/15 05:29:41;;;;;;;9.40;3.80;;;21.90;63.50;;;;;;2055851;28;20077;-71
2022/06/15 05:30:50;;;;;;;4.55;3.30;;;21.90;63.10;;;;;;2048006;28;20070;-71
2022/06/15 05:31:52;;;;;;;6.15;3.45;;;21.90;63.80;;;;;;2055006;28;20046;-72
2022/06/15 05:32:52;;;;;;;9.27;4.20;;;21.90;63.60;;;;;;2046853;28;20560;-71
2022/06/15 05:33:55;;;;;;;6.93;3.90;;;21.70;63.50;;;;;;2046934;29;20031;-71
2022/06/15 05:34:56;;;;;;;5.43;3.65;;;21.50;64.30;;;;;;2054972;28;20061;-70
2022/06/15 05:36:06;;;;;;;8.23;3.90;;;21.60;64.20;;;;;;2056084;28;20572;-71
2022/06/15 05:37:08;;;;;;;5.63;3.40;;;21.50;63.60;;;;;;2055310;28;20536;-70
2022/06/15 05:38:11;;;;;;;6.75;3.38;;;21.50;64.00;;;;;;2048220;28;20083;-73
2022/06/15 05:39:13;;;;;;;5.35;3.80;;;21.70;63.80;;;;;;2055158;28;20070;-72
2022/06/15 05:40:17;;;;;;;5.85;4.10;;;21.80;63.00;;;;;;2055479;28;20702;-72
2022/06/15 05:41:18;;;;;;;7.88;3.50;;;21.60;63.40;;;;;;2047078;28;20039;-72
2022/06/15 05:42:20;;;;;;;5.88;3.38;;;21.90;64.40;;;;;;2039781;29;20031;-72
2022/06/15 05:43:28;;;;;;;8.80;3.85;;;22.30;62.80;;;;;;2041788;28;20028;-73
2022/06/15 05:45:49;;;;;;;6.40;3.30;;;22.90;60.90;;;;;;2055230;28;20461;-72
2022/06/15 05:46:57;;;;;;;9.63;3.90;;;23.20;60.00;;;;;;2055429;28;20023;-71